UKV2133 EIDW-EKCH
Flight info
| Callsign | UKV2133 |
|---|---|
| Flight time | 1h 43m |
| Altitude | 37000 |
| Route | ENDEQ3J ENDEQ Q36 ALAVA Z195 MALUD UL975 WAL M16 NAPEX DCT LAMIX UT29 LIBSO UL975 ERDOW DCT ROPAL DCT LESRA DCT TESPI |
| Aircraft | A320/M-SDE3FGHIRWY/LB1 |
Departure
| Time | 2026-04-26 08:56 |
|---|---|
| Airport | Dublin Airport (EIDW) |
Arrival
| Time | 2026-04-26 10:39 |
|---|---|
| Airport | Copenhagen Kastrup Airport (EKCH) |
| Time | Latitude | Longitude | Altitude | Speed | Heading |
|---|---|---|---|---|---|
| 2026-04-26 08:13 | 53.42570 | -6.24679 | 213 ft | 0 kts | 71° |
| 2026-04-26 08:45 | 53.42563 | -6.24715 | 215 ft | 4 kts | 71° |
| 2026-04-26 08:45 | 53.42554 | -6.24758 | 211 ft | 4 kts | 69° |
| 2026-04-26 08:46 | 53.42543 | -6.24798 | 212 ft | 4 kts | 50° |
| 2026-04-26 08:46 | 53.42527 | -6.24816 | 211 ft | 3 kts | 338° |
| 2026-04-26 08:46 | 53.42509 | -6.24803 | 211 ft | 0 kts | 337° |
| 2026-04-26 08:49 | 53.42511 | -6.24804 | 211 ft | 1 kts | 337° |
| 2026-04-26 08:49 | 53.42526 | -6.24815 | 211 ft | 4 kts | 337° |
| 2026-04-26 08:49 | 53.42553 | -6.24847 | 213 ft | 6 kts | 304° |
| 2026-04-26 08:49 | 53.42550 | -6.24936 | 214 ft | 10 kts | 255° |
| 2026-04-26 08:50 | 53.42590 | -6.25027 | 211 ft | 12 kts | 334° |
| 2026-04-26 08:50 | 53.42677 | -6.25091 | 214 ft | 14 kts | 336° |
| 2026-04-26 08:50 | 53.42753 | -6.25210 | 211 ft | 16 kts | 329° |
| 2026-04-26 08:50 | 53.42866 | -6.25298 | 212 ft | 19 kts | 335° |
| 2026-04-26 08:51 | 53.43148 | -6.25499 | 214 ft | 25 kts | 337° |
| 2026-04-26 08:51 | 53.43304 | -6.25613 | 219 ft | 20 kts | 335° |
| 2026-04-26 08:51 | 53.43402 | -6.25613 | 211 ft | 15 kts | 58° |
| 2026-04-26 08:52 | 53.43401 | -6.25422 | 215 ft | 18 kts | 96° |
| 2026-04-26 08:52 | 53.43387 | -6.25194 | 219 ft | 21 kts | 96° |
| 2026-04-26 08:52 | 53.43372 | -6.24931 | 215 ft | 24 kts | 95° |
| 2026-04-26 08:52 | 53.43357 | -6.24657 | 214 ft | 20 kts | 95° |
| 2026-04-26 08:53 | 53.43422 | -6.24555 | 215 ft | 15 kts | 9° |
| 2026-04-26 08:53 | 53.43513 | -6.24541 | 213 ft | 10 kts | 352° |
| 2026-04-26 08:53 | 53.43527 | -6.24621 | 217 ft | 0 kts | 272° |
| 2026-04-26 08:55 | 53.43527 | -6.24630 | 214 ft | 5 kts | 272° |
| 2026-04-26 08:55 | 53.43549 | -6.25039 | 212 ft | 73 kts | 275° |
| 2026-04-26 08:55 | 53.43617 | -6.26249 | 216 ft | 133 kts | 275° |
| 2026-04-26 08:56 | 53.43719 | -6.27964 | 513 ft | 154 kts | 276° |
| 2026-04-26 08:56 | 53.43792 | -6.29172 | 945 ft | 155 kts | 277° |
| 2026-04-26 08:56 | 53.44395 | -6.31384 | 1807 ft | 161 kts | 306° |
| 2026-04-26 08:56 | 53.45116 | -6.32926 | 2277 ft | 178 kts | 308° |
| 2026-04-26 08:57 | 53.46012 | -6.34547 | 2574 ft | 202 kts | 324° |
| 2026-04-26 08:57 | 53.47404 | -6.35315 | 2983 ft | 223 kts | 359° |
| 2026-04-26 08:57 | 53.48967 | -6.35133 | 3713 ft | 230 kts | 3° |
| 2026-04-26 08:57 | 53.50567 | -6.34936 | 3947 ft | 231 kts | 9° |
| 2026-04-26 08:58 | 53.51951 | -6.33774 | 4007 ft | 228 kts | 49° |
| 2026-04-26 08:58 | 53.52608 | -6.31429 | 4016 ft | 223 kts | 88° |
| 2026-04-26 08:58 | 53.52564 | -6.28823 | 4014 ft | 225 kts | 95° |
| 2026-04-26 08:58 | 53.52506 | -6.26135 | 4115 ft | 242 kts | 94° |
| 2026-04-26 08:59 | 53.52458 | -6.23168 | 4683 ft | 264 kts | 94° |
| 2026-04-26 08:59 | 53.52411 | -6.20035 | 5527 ft | 272 kts | 94° |
| 2026-04-26 08:59 | 53.52365 | -6.16840 | 6445 ft | 275 kts | 94° |
| 2026-04-26 08:59 | 53.52319 | -6.13607 | 7332 ft | 278 kts | 95° |
| 2026-04-26 09:00 | 53.52269 | -6.10336 | 8185 ft | 282 kts | 95° |
| 2026-04-26 09:00 | 53.52158 | -6.07062 | 8926 ft | 287 kts | 102° |
| 2026-04-26 09:00 | 53.51736 | -6.03793 | 9184 ft | 286 kts | 107° |
| 2026-04-26 09:00 | 53.51266 | -6.00543 | 9250 ft | 286 kts | 107° |
| 2026-04-26 09:01 | 53.50792 | -5.97302 | 9256 ft | 285 kts | 107° |
| 2026-04-26 09:01 | 53.50318 | -5.94067 | 9254 ft | 285 kts | 107° |
| 2026-04-26 09:01 | 53.49846 | -5.90834 | 9257 ft | 285 kts | 107° |
| 2026-04-26 09:01 | 53.49374 | -5.87596 | 9256 ft | 285 kts | 107° |
| 2026-04-26 09:02 | 53.49062 | -5.85454 | 9253 ft | 285 kts | 107° |
| 2026-04-26 09:02 | 53.48466 | -5.81154 | 9265 ft | 286 kts | 105° |
| 2026-04-26 09:02 | 53.48052 | -5.77857 | 9995 ft | 289 kts | 105° |
| 2026-04-26 09:02 | 53.47638 | -5.74487 | 10561 ft | 305 kts | 105° |
| 2026-04-26 09:03 | 53.47188 | -5.70865 | 10815 ft | 329 kts | 104° |
| 2026-04-26 09:03 | 53.46709 | -5.67033 | 11345 ft | 340 kts | 104° |
| 2026-04-26 09:03 | 53.46386 | -5.64443 | 11807 ft | 344 kts | 104° |
| 2026-04-26 09:03 | 53.45890 | -5.60480 | 12531 ft | 349 kts | 104° |
| 2026-04-26 09:04 | 53.45384 | -5.56465 | 13253 ft | 354 kts | 104° |
| 2026-04-26 09:04 | 53.44708 | -5.51063 | 14167 ft | 361 kts | 101° |
| 2026-04-26 09:04 | 53.44476 | -5.46827 | 14691 ft | 370 kts | 94° |
| 2026-04-26 09:04 | 53.44407 | -5.43903 | 15073 ft | 374 kts | 94° |
| 2026-04-26 09:05 | 53.44274 | -5.38094 | 15893 ft | 379 kts | 94° |
| 2026-04-26 09:05 | 53.44205 | -5.35159 | 16304 ft | 382 kts | 94° |
| 2026-04-26 09:05 | 53.44098 | -5.30689 | 16920 ft | 385 kts | 94° |
| 2026-04-26 09:05 | 53.43982 | -5.26178 | 17526 ft | 389 kts | 94° |
| 2026-04-26 09:06 | 53.43860 | -5.21620 | 18130 ft | 393 kts | 94° |
| 2026-04-26 09:06 | 53.43697 | -5.15513 | 18867 ft | 398 kts | 94° |
| 2026-04-26 09:06 | 53.43563 | -5.10856 | 19367 ft | 402 kts | 94° |
| 2026-04-26 09:06 | 53.43468 | -5.07688 | 19708 ft | 404 kts | 94° |
| 2026-04-26 09:07 | 53.43321 | -5.03025 | 20197 ft | 408 kts | 94° |
| 2026-04-26 09:07 | 53.43167 | -4.98259 | 20695 ft | 411 kts | 95° |
| 2026-04-26 09:07 | 53.43008 | -4.93459 | 21187 ft | 414 kts | 95° |
| 2026-04-26 09:07 | 53.42845 | -4.88616 | 21676 ft | 418 kts | 95° |
| 2026-04-26 09:08 | 53.42682 | -4.83734 | 22151 ft | 421 kts | 95° |
| 2026-04-26 09:08 | 53.42520 | -4.78813 | 22620 ft | 424 kts | 95° |
| 2026-04-26 09:08 | 53.42354 | -4.73852 | 23089 ft | 428 kts | 95° |
| 2026-04-26 09:08 | 53.42185 | -4.68854 | 23559 ft | 431 kts | 95° |
| 2026-04-26 09:09 | 53.42013 | -4.63822 | 23982 ft | 434 kts | 95° |
| 2026-04-26 09:09 | 53.41837 | -4.58824 | 24345 ft | 437 kts | 95° |
| 2026-04-26 09:09 | 53.41653 | -4.53715 | 24716 ft | 440 kts | 95° |
| 2026-04-26 09:09 | 53.41469 | -4.48577 | 25072 ft | 443 kts | 95° |
| 2026-04-26 09:10 | 53.41282 | -4.43400 | 25422 ft | 447 kts | 95° |
| 2026-04-26 09:10 | 53.41093 | -4.38187 | 25773 ft | 450 kts | 95° |
| 2026-04-26 09:10 | 53.40901 | -4.32932 | 26111 ft | 453 kts | 95° |
| 2026-04-26 09:10 | 53.40707 | -4.27647 | 26445 ft | 456 kts | 95° |
| 2026-04-26 09:11 | 53.40508 | -4.22324 | 26776 ft | 459 kts | 95° |
| 2026-04-26 09:11 | 53.40307 | -4.17037 | 27102 ft | 462 kts | 95° |
| 2026-04-26 09:11 | 53.40097 | -4.11645 | 27420 ft | 465 kts | 95° |
| 2026-04-26 09:11 | 53.39881 | -4.06213 | 27730 ft | 469 kts | 95° |
| 2026-04-26 09:12 | 53.39661 | -4.00755 | 28042 ft | 472 kts | 95° |
| 2026-04-26 09:12 | 53.39620 | -3.95236 | 28353 ft | 476 kts | 87° |
| 2026-04-26 09:12 | 53.39904 | -3.89694 | 28652 ft | 479 kts | 86° |
| 2026-04-26 09:12 | 53.40197 | -3.84121 | 28946 ft | 482 kts | 86° |
| 2026-04-26 09:13 | 53.40483 | -3.78506 | 29235 ft | 484 kts | 86° |
| 2026-04-26 09:13 | 53.40762 | -3.72866 | 29513 ft | 487 kts | 86° |
| 2026-04-26 09:13 | 53.41033 | -3.67267 | 29799 ft | 490 kts | 86° |
| 2026-04-26 09:13 | 53.41265 | -3.61564 | 30060 ft | 492 kts | 90° |
| 2026-04-26 09:14 | 53.41126 | -3.55832 | 30318 ft | 493 kts | 96° |
| 2026-04-26 09:14 | 53.40865 | -3.50088 | 30595 ft | 494 kts | 95° |
| 2026-04-26 09:14 | 53.40607 | -3.44350 | 30961 ft | 493 kts | 95° |
| 2026-04-26 09:14 | 53.40351 | -3.38631 | 31334 ft | 492 kts | 95° |
| 2026-04-26 09:15 | 53.40092 | -3.32913 | 31710 ft | 491 kts | 95° |
| 2026-04-26 09:15 | 53.39832 | -3.27218 | 32090 ft | 490 kts | 95° |
| 2026-04-26 09:15 | 53.39574 | -3.21609 | 32451 ft | 489 kts | 95° |
| 2026-04-26 09:15 | 53.39307 | -3.15940 | 32814 ft | 488 kts | 95° |
| 2026-04-26 09:16 | 53.39045 | -3.10281 | 33180 ft | 487 kts | 95° |
| 2026-04-26 09:16 | 53.38814 | -3.04626 | 33556 ft | 486 kts | 94° |
| 2026-04-26 09:16 | 53.38613 | -2.98990 | 33935 ft | 484 kts | 94° |
| 2026-04-26 09:16 | 53.38424 | -2.93366 | 34312 ft | 483 kts | 94° |
| 2026-04-26 09:17 | 53.38232 | -2.87752 | 34637 ft | 482 kts | 94° |
| 2026-04-26 09:17 | 53.38030 | -2.82153 | 34949 ft | 481 kts | 94° |
| 2026-04-26 09:17 | 53.37819 | -2.76640 | 35231 ft | 481 kts | 94° |
| 2026-04-26 09:17 | 53.37596 | -2.71065 | 35519 ft | 480 kts | 95° |
| 2026-04-26 09:18 | 53.37365 | -2.65495 | 35792 ft | 479 kts | 95° |
| 2026-04-26 09:18 | 53.37129 | -2.59929 | 36064 ft | 479 kts | 95° |
| 2026-04-26 09:18 | 53.36894 | -2.54374 | 36339 ft | 478 kts | 94° |
| 2026-04-26 09:18 | 53.36661 | -2.48828 | 36594 ft | 477 kts | 94° |
| 2026-04-26 09:19 | 53.36429 | -2.43288 | 36851 ft | 477 kts | 94° |
| 2026-04-26 09:19 | 53.36193 | -2.37756 | 37097 ft | 476 kts | 95° |
| 2026-04-26 09:19 | 53.35955 | -2.32300 | 37286 ft | 476 kts | 95° |
| 2026-04-26 09:20 | 53.35201 | -2.21293 | 37328 ft | 476 kts | 100° |
| 2026-04-26 09:20 | 53.34091 | -2.10369 | 37329 ft | 476 kts | 101° |
| 2026-04-26 09:21 | 53.32962 | -1.99447 | 37330 ft | 476 kts | 101° |
| 2026-04-26 09:21 | 53.31827 | -1.88606 | 37333 ft | 476 kts | 101° |
| 2026-04-26 09:22 | 53.30682 | -1.77701 | 37343 ft | 476 kts | 101° |
| 2026-04-26 09:22 | 53.29524 | -1.66795 | 37345 ft | 477 kts | 101° |
| 2026-04-26 09:23 | 53.28356 | -1.55891 | 37354 ft | 477 kts | 101° |
| 2026-04-26 09:23 | 53.27180 | -1.44994 | 37357 ft | 477 kts | 101° |
| 2026-04-26 09:24 | 53.26004 | -1.34172 | 37354 ft | 477 kts | 101° |
| 2026-04-26 09:24 | 53.24800 | -1.23290 | 37351 ft | 476 kts | 101° |
| 2026-04-26 09:25 | 53.23586 | -1.12417 | 37343 ft | 477 kts | 101° |
| 2026-04-26 09:25 | 53.22375 | -1.01544 | 37358 ft | 477 kts | 99° |
| 2026-04-26 09:25 | 53.22088 | -0.96050 | 37360 ft | 476 kts | 88° |
| 2026-04-26 09:26 | 53.22373 | -0.90569 | 37358 ft | 474 kts | 78° |
| 2026-04-26 09:26 | 53.23213 | -0.85352 | 37356 ft | 471 kts | 67° |
| 2026-04-26 09:26 | 53.24592 | -0.80424 | 37351 ft | 467 kts | 56° |
| 2026-04-26 09:27 | 53.28625 | -0.72069 | 37357 ft | 462 kts | 44° |
| 2026-04-26 09:27 | 53.32245 | -0.63141 | 37348 ft | 469 kts | 63° |
| 2026-04-26 09:28 | 53.35004 | -0.53249 | 37347 ft | 469 kts | 63° |
| 2026-04-26 09:28 | 53.37758 | -0.43419 | 37350 ft | 470 kts | 63° |
| 2026-04-26 09:29 | 53.40523 | -0.33497 | 37351 ft | 470 kts | 63° |
| 2026-04-26 09:29 | 53.43305 | -0.23581 | 37354 ft | 470 kts | 62° |
| 2026-04-26 09:30 | 53.46095 | -0.13657 | 37354 ft | 470 kts | 62° |
| 2026-04-26 09:30 | 53.48874 | -0.03716 | 37359 ft | 471 kts | 63° |
| 2026-04-26 09:31 | 53.51671 | 0.06221 | 37371 ft | 469 kts | 58° |
| 2026-04-26 09:31 | 53.55470 | 0.14895 | 37373 ft | 462 kts | 44° |
| 2026-04-26 09:32 | 53.59799 | 0.22902 | 37374 ft | 462 kts | 44° |
| 2026-04-26 09:32 | 53.64114 | 0.30938 | 37372 ft | 463 kts | 45° |
| 2026-04-26 09:33 | 53.68413 | 0.39009 | 37367 ft | 463 kts | 45° |
| 2026-04-26 09:33 | 53.72683 | 0.47035 | 37377 ft | 463 kts | 45° |
| 2026-04-26 09:34 | 53.76985 | 0.55121 | 37397 ft | 463 kts | 45° |
| 2026-04-26 09:34 | 53.81273 | 0.63224 | 37399 ft | 462 kts | 45° |
| 2026-04-26 09:35 | 53.85551 | 0.71339 | 37398 ft | 462 kts | 45° |
| 2026-04-26 09:35 | 53.89818 | 0.79478 | 37394 ft | 462 kts | 45° |
| 2026-04-26 09:36 | 53.93810 | 0.87935 | 37384 ft | 464 kts | 52° |
| 2026-04-26 09:36 | 53.97527 | 0.96896 | 37387 ft | 464 kts | 52° |
| 2026-04-26 09:37 | 54.01238 | 1.05871 | 37401 ft | 464 kts | 52° |
| 2026-04-26 09:37 | 54.04939 | 1.14862 | 37404 ft | 463 kts | 52° |
| 2026-04-26 09:38 | 54.08614 | 1.23780 | 37393 ft | 463 kts | 52° |
| 2026-04-26 09:38 | 54.12297 | 1.32770 | 37400 ft | 463 kts | 52° |
| 2026-04-26 09:39 | 54.15975 | 1.41775 | 37391 ft | 462 kts | 52° |
| 2026-04-26 09:39 | 54.19636 | 1.50806 | 37391 ft | 462 kts | 52° |
| 2026-04-26 09:40 | 54.23264 | 1.59786 | 37394 ft | 462 kts | 52° |
| 2026-04-26 09:40 | 54.26916 | 1.68836 | 37405 ft | 462 kts | 52° |
| 2026-04-26 09:41 | 54.30571 | 1.77898 | 37403 ft | 463 kts | 52° |
| 2026-04-26 09:41 | 54.34212 | 1.86987 | 37396 ft | 463 kts | 52° |
| 2026-04-26 09:42 | 54.37836 | 1.96103 | 37391 ft | 463 kts | 52° |
| 2026-04-26 09:42 | 54.41443 | 2.05157 | 37391 ft | 463 kts | 52° |
| 2026-04-26 09:43 | 54.45065 | 2.14292 | 37399 ft | 463 kts | 53° |
| 2026-04-26 09:43 | 54.48687 | 2.23442 | 37402 ft | 463 kts | 53° |
| 2026-04-26 09:44 | 54.52296 | 2.32619 | 37390 ft | 463 kts | 53° |
| 2026-04-26 09:44 | 54.55890 | 2.41830 | 37386 ft | 463 kts | 53° |
| 2026-04-26 09:45 | 54.59472 | 2.50974 | 37387 ft | 463 kts | 53° |
| 2026-04-26 09:45 | 54.63068 | 2.60205 | 37387 ft | 463 kts | 53° |
| 2026-04-26 09:46 | 54.66650 | 2.69455 | 37389 ft | 463 kts | 53° |
| 2026-04-26 09:46 | 54.70228 | 2.78729 | 37387 ft | 464 kts | 53° |
| 2026-04-26 09:47 | 54.73801 | 2.88032 | 37397 ft | 464 kts | 53° |
| 2026-04-26 09:47 | 54.77339 | 2.97295 | 37389 ft | 465 kts | 54° |
| 2026-04-26 09:48 | 54.80902 | 3.06640 | 37389 ft | 465 kts | 53° |
| 2026-04-26 09:48 | 54.84468 | 3.15986 | 37387 ft | 465 kts | 54° |
| 2026-04-26 09:49 | 54.88012 | 3.25370 | 37383 ft | 465 kts | 54° |
| 2026-04-26 09:49 | 54.91556 | 3.34766 | 37386 ft | 465 kts | 54° |
| 2026-04-26 09:50 | 54.95078 | 3.44114 | 37387 ft | 465 kts | 54° |
| 2026-04-26 09:50 | 54.98606 | 3.53559 | 37395 ft | 466 kts | 54° |
| 2026-04-26 09:51 | 55.02136 | 3.63021 | 37390 ft | 466 kts | 54° |
| 2026-04-26 09:51 | 55.05676 | 3.72481 | 37388 ft | 466 kts | 54° |
| 2026-04-26 09:52 | 55.09176 | 3.81907 | 37385 ft | 466 kts | 54° |
| 2026-04-26 09:52 | 55.14248 | 3.96401 | 37379 ft | 469 kts | 64° |
| 2026-04-26 09:53 | 55.16757 | 4.06937 | 37378 ft | 470 kts | 65° |
| 2026-04-26 09:53 | 55.19279 | 4.17484 | 37377 ft | 470 kts | 65° |
| 2026-04-26 09:54 | 55.21799 | 4.28034 | 37387 ft | 470 kts | 65° |
| 2026-04-26 09:54 | 55.24287 | 4.38539 | 37383 ft | 470 kts | 65° |
| 2026-04-26 09:55 | 55.26774 | 4.49141 | 37386 ft | 470 kts | 65° |
| 2026-04-26 09:55 | 55.29257 | 4.59751 | 37384 ft | 470 kts | 65° |
| 2026-04-26 09:56 | 55.31729 | 4.70376 | 37381 ft | 470 kts | 65° |
| 2026-04-26 09:56 | 55.34195 | 4.81017 | 37378 ft | 470 kts | 66° |
| 2026-04-26 09:57 | 55.36632 | 4.91596 | 37381 ft | 470 kts | 66° |
| 2026-04-26 09:57 | 55.38833 | 5.02433 | 37380 ft | 472 kts | 76° |
| 2026-04-26 09:58 | 55.40140 | 5.13769 | 37376 ft | 473 kts | 77° |
| 2026-04-26 09:58 | 55.41450 | 5.25110 | 37387 ft | 473 kts | 77° |
| 2026-04-26 09:59 | 55.42762 | 5.36464 | 37384 ft | 473 kts | 77° |
| 2026-04-26 09:59 | 55.44040 | 5.47752 | 37381 ft | 473 kts | 77° |
| 2026-04-26 10:00 | 55.45306 | 5.59133 | 37378 ft | 473 kts | 77° |
| 2026-04-26 10:00 | 55.46567 | 5.70522 | 37383 ft | 473 kts | 77° |
| 2026-04-26 10:01 | 55.47817 | 5.81913 | 37376 ft | 473 kts | 77° |
| 2026-04-26 10:01 | 55.49053 | 5.93319 | 37376 ft | 473 kts | 77° |
| 2026-04-26 10:02 | 55.50277 | 6.04643 | 37372 ft | 473 kts | 77° |
| 2026-04-26 10:02 | 55.51506 | 6.16052 | 37384 ft | 473 kts | 77° |
| 2026-04-26 10:03 | 55.52719 | 6.27474 | 37376 ft | 473 kts | 78° |
| 2026-04-26 10:03 | 55.53920 | 6.38905 | 37371 ft | 474 kts | 78° |
| 2026-04-26 10:04 | 55.55108 | 6.50336 | 37370 ft | 474 kts | 78° |
| 2026-04-26 10:04 | 55.56278 | 6.61707 | 37367 ft | 474 kts | 78° |
| 2026-04-26 10:05 | 55.57447 | 6.73162 | 37366 ft | 474 kts | 78° |
| 2026-04-26 10:05 | 55.58612 | 6.84622 | 37364 ft | 474 kts | 78° |
| 2026-04-26 10:06 | 55.59762 | 6.96096 | 37373 ft | 474 kts | 78° |
| 2026-04-26 10:06 | 55.60888 | 7.07504 | 37369 ft | 474 kts | 78° |
| 2026-04-26 10:07 | 55.62005 | 7.19001 | 37366 ft | 474 kts | 78° |
| 2026-04-26 10:07 | 55.63118 | 7.30505 | 37369 ft | 474 kts | 78° |
| 2026-04-26 10:08 | 55.64228 | 7.42018 | 37363 ft | 475 kts | 78° |
| 2026-04-26 10:08 | 55.65332 | 7.53544 | 37358 ft | 475 kts | 78° |
| 2026-04-26 10:09 | 55.66415 | 7.65080 | 37354 ft | 475 kts | 78° |
| 2026-04-26 10:09 | 55.67481 | 7.76542 | 37355 ft | 475 kts | 78° |
| 2026-04-26 10:10 | 55.68548 | 7.88100 | 37359 ft | 475 kts | 78° |
| 2026-04-26 10:10 | 55.69599 | 7.99674 | 37354 ft | 476 kts | 79° |
| 2026-04-26 10:11 | 55.70633 | 8.11264 | 37347 ft | 476 kts | 79° |
| 2026-04-26 10:11 | 55.71666 | 8.22855 | 37347 ft | 476 kts | 79° |
| 2026-04-26 10:12 | 55.72690 | 8.34379 | 37345 ft | 476 kts | 79° |
| 2026-04-26 10:12 | 55.73706 | 8.45994 | 37355 ft | 476 kts | 78° |
| 2026-04-26 10:13 | 55.74702 | 8.57621 | 37344 ft | 477 kts | 79° |
| 2026-04-26 10:13 | 55.75686 | 8.69256 | 37340 ft | 477 kts | 79° |
| 2026-04-26 10:14 | 55.76669 | 8.80904 | 37336 ft | 477 kts | 79° |
| 2026-04-26 10:14 | 55.77637 | 8.92472 | 37146 ft | 476 kts | 79° |
| 2026-04-26 10:15 | 55.78118 | 8.98288 | 36452 ft | 476 kts | 79° |
| 2026-04-26 10:15 | 55.78599 | 9.04116 | 35876 ft | 478 kts | 78° |
| 2026-04-26 10:15 | 55.79080 | 9.09979 | 35352 ft | 481 kts | 79° |
| 2026-04-26 10:15 | 55.79560 | 9.15867 | 34839 ft | 483 kts | 79° |
| 2026-04-26 10:16 | 55.80036 | 9.21786 | 34334 ft | 485 kts | 79° |
| 2026-04-26 10:16 | 55.80506 | 9.27729 | 33775 ft | 486 kts | 79° |
| 2026-04-26 10:16 | 55.80974 | 9.33683 | 33233 ft | 487 kts | 79° |
| 2026-04-26 10:16 | 55.81442 | 9.39661 | 32702 ft | 488 kts | 79° |
| 2026-04-26 10:17 | 55.81908 | 9.45640 | 32179 ft | 489 kts | 79° |
| 2026-04-26 10:17 | 55.82370 | 9.51547 | 31679 ft | 489 kts | 79° |
| 2026-04-26 10:17 | 55.82838 | 9.57535 | 31174 ft | 487 kts | 79° |
| 2026-04-26 10:17 | 55.83299 | 9.63484 | 30693 ft | 484 kts | 78° |
| 2026-04-26 10:18 | 55.83755 | 9.69406 | 30112 ft | 481 kts | 78° |
| 2026-04-26 10:18 | 55.84201 | 9.75277 | 29491 ft | 477 kts | 78° |
| 2026-04-26 10:18 | 55.84638 | 9.81100 | 28880 ft | 473 kts | 78° |
| 2026-04-26 10:18 | 55.85066 | 9.86867 | 28286 ft | 468 kts | 78° |
| 2026-04-26 10:19 | 55.85487 | 9.92598 | 27695 ft | 469 kts | 78° |
| 2026-04-26 10:19 | 55.85914 | 9.98372 | 27123 ft | 472 kts | 78° |
| 2026-04-26 10:19 | 55.86342 | 10.04150 | 26558 ft | 469 kts | 78° |
| 2026-04-26 10:19 | 55.86764 | 10.09884 | 26003 ft | 465 kts | 78° |
| 2026-04-26 10:20 | 55.87174 | 10.15495 | 25401 ft | 461 kts | 78° |
| 2026-04-26 10:20 | 55.87450 | 10.19315 | 24979 ft | 459 kts | 78° |
| 2026-04-26 10:20 | 55.87982 | 10.26731 | 24215 ft | 453 kts | 77° |
| 2026-04-26 10:20 | 55.88376 | 10.32278 | 23551 ft | 449 kts | 77° |
| 2026-04-26 10:21 | 55.88764 | 10.37779 | 22844 ft | 446 kts | 77° |
| 2026-04-26 10:21 | 55.89144 | 10.43238 | 22153 ft | 443 kts | 77° |
| 2026-04-26 10:21 | 55.89507 | 10.48671 | 21480 ft | 441 kts | 79° |
| 2026-04-26 10:21 | 55.89531 | 10.54147 | 20814 ft | 445 kts | 90° |
| 2026-04-26 10:22 | 55.89054 | 10.59602 | 20168 ft | 446 kts | 98° |
| 2026-04-26 10:22 | 55.88400 | 10.64916 | 19548 ft | 444 kts | 98° |
| 2026-04-26 10:22 | 55.87747 | 10.70268 | 18925 ft | 441 kts | 98° |
| 2026-04-26 10:22 | 55.87098 | 10.75592 | 18267 ft | 439 kts | 98° |
| 2026-04-26 10:23 | 55.86451 | 10.80880 | 17578 ft | 436 kts | 98° |
| 2026-04-26 10:23 | 55.85802 | 10.86141 | 16894 ft | 434 kts | 98° |
| 2026-04-26 10:23 | 55.85157 | 10.91366 | 16225 ft | 431 kts | 98° |
| 2026-04-26 10:23 | 55.84493 | 10.96559 | 15575 ft | 429 kts | 99° |
| 2026-04-26 10:24 | 55.83774 | 11.01683 | 15042 ft | 424 kts | 101° |
| 2026-04-26 10:24 | 55.83023 | 11.06719 | 14560 ft | 418 kts | 101° |
| 2026-04-26 10:24 | 55.82265 | 11.11673 | 14078 ft | 412 kts | 101° |
| 2026-04-26 10:24 | 55.81523 | 11.16492 | 13539 ft | 407 kts | 101° |
| 2026-04-26 10:25 | 55.80794 | 11.21271 | 13322 ft | 393 kts | 101° |
| 2026-04-26 10:25 | 55.80097 | 11.25852 | 13338 ft | 374 kts | 101° |
| 2026-04-26 10:25 | 55.79437 | 11.30209 | 13358 ft | 357 kts | 101° |
| 2026-04-26 10:25 | 55.78806 | 11.34377 | 13343 ft | 342 kts | 99° |
| 2026-04-26 10:26 | 55.78201 | 11.38394 | 13342 ft | 333 kts | 99° |
| 2026-04-26 10:26 | 55.77612 | 11.42351 | 13336 ft | 330 kts | 99° |
| 2026-04-26 10:26 | 55.77197 | 11.46324 | 13286 ft | 324 kts | 91° |
| 2026-04-26 10:26 | 55.76781 | 11.50263 | 12941 ft | 328 kts | 104° |
| 2026-04-26 10:27 | 55.75742 | 11.53824 | 12595 ft | 331 kts | 119° |
| 2026-04-26 10:27 | 55.74496 | 11.57251 | 12264 ft | 329 kts | 120° |
| 2026-04-26 10:27 | 55.73246 | 11.60641 | 11955 ft | 327 kts | 120° |
| 2026-04-26 10:27 | 55.71999 | 11.63999 | 11624 ft | 325 kts | 120° |
| 2026-04-26 10:28 | 55.70760 | 11.67328 | 11319 ft | 322 kts | 121° |
| 2026-04-26 10:28 | 55.69532 | 11.70633 | 11000 ft | 320 kts | 121° |
| 2026-04-26 10:28 | 55.68316 | 11.73918 | 10672 ft | 317 kts | 121° |
| 2026-04-26 10:28 | 55.67108 | 11.77173 | 10349 ft | 315 kts | 121° |
| 2026-04-26 10:29 | 55.65911 | 11.80390 | 9887 ft | 310 kts | 121° |
| 2026-04-26 10:29 | 55.64733 | 11.83559 | 9263 ft | 306 kts | 120° |
| 2026-04-26 10:29 | 55.63570 | 11.86684 | 8663 ft | 301 kts | 121° |
| 2026-04-26 10:29 | 55.62443 | 11.89707 | 8072 ft | 296 kts | 121° |
| 2026-04-26 10:30 | 55.61317 | 11.92720 | 7463 ft | 291 kts | 121° |
| 2026-04-26 10:30 | 55.60209 | 11.95679 | 6864 ft | 286 kts | 121° |
| 2026-04-26 10:30 | 55.59119 | 11.98590 | 6246 ft | 283 kts | 121° |
| 2026-04-26 10:30 | 55.58037 | 12.01477 | 5873 ft | 279 kts | 121° |
| 2026-04-26 10:31 | 55.56976 | 12.04308 | 5226 ft | 275 kts | 121° |
| 2026-04-26 10:31 | 55.55923 | 12.07111 | 4541 ft | 272 kts | 122° |
| 2026-04-26 10:31 | 55.54908 | 12.09792 | 4343 ft | 251 kts | 122° |
| 2026-04-26 10:31 | 55.53955 | 12.12284 | 3988 ft | 241 kts | 122° |
| 2026-04-26 10:32 | 55.53025 | 12.14715 | 3473 ft | 237 kts | 122° |
| 2026-04-26 10:32 | 55.52137 | 12.17058 | 3247 ft | 229 kts | 122° |
| 2026-04-26 10:32 | 55.51257 | 12.19370 | 3072 ft | 225 kts | 122° |
| 2026-04-26 10:32 | 55.50386 | 12.21663 | 2987 ft | 225 kts | 122° |
| 2026-04-26 10:33 | 55.49542 | 12.23898 | 2986 ft | 212 kts | 122° |
| 2026-04-26 10:33 | 55.48727 | 12.26043 | 3002 ft | 208 kts | 122° |
| 2026-04-26 10:33 | 55.47922 | 12.28159 | 3002 ft | 208 kts | 122° |
| 2026-04-26 10:33 | 55.47112 | 12.30269 | 3003 ft | 207 kts | 122° |
| 2026-04-26 10:34 | 55.46305 | 12.32366 | 3003 ft | 206 kts | 122° |
| 2026-04-26 10:34 | 55.45534 | 12.34494 | 3001 ft | 205 kts | 111° |
| 2026-04-26 10:34 | 55.45358 | 12.36878 | 3003 ft | 200 kts | 79° |
| 2026-04-26 10:34 | 55.45752 | 12.39175 | 3002 ft | 194 kts | 56° |
| 2026-04-26 10:35 | 55.46620 | 12.40938 | 2999 ft | 191 kts | 39° |
| 2026-04-26 10:35 | 55.47608 | 12.42495 | 2995 ft | 190 kts | 37° |
| 2026-04-26 10:35 | 55.48607 | 12.44031 | 2865 ft | 190 kts | 37° |
| 2026-04-26 10:35 | 55.49588 | 12.45538 | 2640 ft | 184 kts | 37° |
| 2026-04-26 10:36 | 55.50544 | 12.47005 | 2380 ft | 180 kts | 37° |
| 2026-04-26 10:36 | 55.51479 | 12.48439 | 2139 ft | 176 kts | 37° |
| 2026-04-26 10:36 | 55.52397 | 12.49848 | 1887 ft | 173 kts | 37° |
| 2026-04-26 10:36 | 55.53281 | 12.51209 | 1645 ft | 163 kts | 37° |
| 2026-04-26 10:37 | 55.54103 | 12.52474 | 1421 ft | 152 kts | 36° |
| 2026-04-26 10:37 | 55.54867 | 12.53649 | 1231 ft | 144 kts | 37° |
| 2026-04-26 10:37 | 55.55607 | 12.54787 | 1039 ft | 140 kts | 37° |
| 2026-04-26 10:37 | 55.56336 | 12.55910 | 836 ft | 138 kts | 37° |
| 2026-04-26 10:38 | 55.57054 | 12.57024 | 665 ft | 138 kts | 39° |
| 2026-04-26 10:38 | 55.57771 | 12.58112 | 440 ft | 136 kts | 36° |
| 2026-04-26 10:38 | 55.58477 | 12.59199 | 278 ft | 134 kts | 38° |
| 2026-04-26 10:38 | 55.59179 | 12.60276 | 92 ft | 133 kts | 39° |
| 2026-04-26 10:39 | 55.59856 | 12.61324 | 25 ft | 119 kts | 39° |
| 2026-04-26 10:39 | 55.60337 | 12.62077 | 23 ft | 59 kts | 42° |
| 2026-04-26 10:39 | 55.60554 | 12.62309 | 26 ft | 31 kts | 19° |
| 2026-04-26 10:39 | 55.60739 | 12.62384 | 24 ft | 17 kts | 12° |
| 2026-04-26 10:40 | 55.60843 | 12.62469 | 24 ft | 17 kts | 36° |
| 2026-04-26 10:40 | 55.60940 | 12.62616 | 25 ft | 19 kts | 41° |
| 2026-04-26 10:40 | 55.61038 | 12.62775 | 25 ft | 19 kts | 41° |
| 2026-04-26 10:40 | 55.61143 | 12.62940 | 25 ft | 21 kts | 41° |
| 2026-04-26 10:41 | 55.61257 | 12.63115 | 24 ft | 23 kts | 41° |
| 2026-04-26 10:41 | 55.61380 | 12.63301 | 24 ft | 24 kts | 40° |
| 2026-04-26 10:41 | 55.61511 | 12.63492 | 24 ft | 25 kts | 41° |
| 2026-04-26 10:41 | 55.61637 | 12.63702 | 24 ft | 25 kts | 43° |
| 2026-04-26 10:42 | 55.61760 | 12.63895 | 24 ft | 22 kts | 39° |
| 2026-04-26 10:42 | 55.61838 | 12.64016 | 24 ft | 23 kts | 41° |
| 2026-04-26 10:42 | 55.62029 | 12.64200 | 26 ft | 24 kts | 25° |
| 2026-04-26 10:42 | 55.62183 | 12.64330 | 23 ft | 26 kts | 26° |
| 2026-04-26 10:43 | 55.62275 | 12.64510 | 23 ft | 17 kts | 61° |
| 2026-04-26 10:43 | 55.62302 | 12.64606 | 24 ft | 0 kts | 64° |
| 2026-04-26 10:44 | 55.62308 | 12.64629 | 25 ft | 5 kts | 65° |
| 2026-04-26 10:44 | 55.62340 | 12.64754 | 24 ft | 15 kts | 65° |
| 2026-04-26 10:44 | 55.62332 | 12.64929 | 24 ft | 14 kts | 120° |
| 2026-04-26 10:44 | 55.62291 | 12.65039 | 25 ft | 7 kts | 123° |
| 2026-04-26 10:45 | 55.62289 | 12.65044 | 24 ft | 0 kts | 123° |
| 2026-04-26 10:45 | 55.62277 | 12.65102 | 24 ft | 12 kts | 96° |
| 2026-04-26 10:45 | 55.62326 | 12.65203 | 24 ft | 12 kts | 11° |
| 2026-04-26 10:45 | 55.62418 | 12.65196 | 24 ft | 14 kts | 357° |
| 2026-04-26 10:46 | 55.62527 | 12.65182 | 24 ft | 17 kts | 358° |
| 2026-04-26 10:46 | 55.62618 | 12.65180 | 24 ft | 7 kts | 355° |
| 2026-04-26 10:46 | 55.62639 | 12.65114 | 24 ft | 6 kts | 278° |
| 2026-04-26 10:46 | 55.62644 | 12.65063 | 24 ft | 1 kts | 280° |
| 2026-04-26 10:47 | 55.62645 | 12.65060 | 24 ft | 0 kts | 280° |